Time;durP1;ratioP1;P1;durP2;ratioP2;P2;SDS_P1;SDS_P2;PMS_P1;PMS_P2;Temp;Humidity;BMP_temperature;BMP_pressure;BME280_temperature;BME280_humidity;BME280_pressure;Samples;Min_cycle;Max_cycle;Signal;HPM_P1;HPM_P2
2021/06/13 00:00:13;;;;;;;;;6.00;6.00;;;;;;;;5002155;28;8996;-90
2021/06/13 00:02:42;;;;;;;;;5.75;5.75;;;;;;;;5004574;28;8905;-88
2021/06/13 00:05:13;;;;;;;;;8.00;6.75;;;;;;;;5004646;28;8858;-89
2021/06/13 00:07:40;;;;;;;;;5.75;4.75;;;;;;;;5003956;28;8914;-90
2021/06/13 00:10:08;;;;;;;;;5.75;5.75;;;;;;;;5005674;28;8894;-88
2021/06/13 00:12:36;;;;;;;;;6.50;6.50;;;;;;;;5004303;28;8905;-91
2021/06/13 00:15:04;;;;;;;;;6.25;5.75;;;;;;;;4996383;28;8878;-90
2021/06/13 00:17:31;;;;;;;;;5.25;5.25;;;;;;;;5002999;28;8854;-90
2021/06/13 00:19:58;;;;;;;;;7.75;7.75;;;;;;;;5003345;28;8871;-87
2021/06/13 00:22:26;;;;;;;;;5.75;5.75;;;;;;;;5003280;28;9006;-86
2021/06/13 00:24:53;;;;;;;;;9.00;7.00;;;;;;;;5002916;28;8866;-89
2021/06/13 00:27:20;;;;;;;;;5.00;5.00;;;;;;;;5003842;28;8879;-87
2021/06/13 00:29:47;;;;;;;;;7.75;5.75;;;;;;;;5001392;28;8871;-88
2021/06/13 00:32:14;;;;;;;;;7.25;7.25;;;;;;;;5003011;28;8837;-89
2021/06/13 00:34:41;;;;;;;;;5.00;5.00;;;;;;;;4996359;28;8862;-90
2021/06/13 00:37:07;;;;;;;;;10.00;9.00;;;;;;;;5003895;28;8979;-84
2021/06/13 00:39:36;;;;;;;;;8.25;6.75;;;;;;;;5002751;28;8921;-88
2021/06/13 00:42:04;;;;;;;;;7.00;7.00;;;;;;;;5004168;28;8866;-91
2021/06/13 00:44:30;;;;;;;;;7.00;7.00;;;;;;;;5002806;28;9021;-87
2021/06/13 00:46:57;;;;;;;;;6.00;5.75;;;;;;;;5003675;28;9786;-91
2021/06/13 00:49:26;;;;;;;;;6.00;6.00;;;;;;;;5004605;28;8884;-91
2021/06/13 00:51:53;;;;;;;;;9.00;8.75;;;;;;;;5004983;28;9008;-87
2021/06/13 00:54:20;;;;;;;;;8.75;7.00;;;;;;;;5002712;28;8993;-87
2021/06/13 00:56:49;;;;;;;;;6.00;6.00;;;;;;;;5003542;28;8866;-90
2021/06/13 00:59:16;;;;;;;;;8.00;8.00;;;;;;;;5002322;28;8878;-90
2021/06/13 01:01:43;;;;;;;;;6.50;5.25;;;;;;;;5002530;28;9013;-88
2021/06/13 01:04:10;;;;;;;;;8.00;6.00;;;;;;;;5001126;28;8976;-83
2021/06/13 01:06:44;;;;;;;;;6.00;6.00;;;;;;;;5002853;28;8977;-86
2021/06/13 01:09:12;;;;;;;;;8.00;7.00;;;;;;;;5004647;28;8847;-90
2021/06/13 01:11:48;;;;;;;;;5.25;5.25;;;;;;;;5007456;28;9665;-91
2021/06/13 01:14:22;;;;;;;;;7.50;6.00;;;;;;;;5008055;28;8894;-91
2021/06/13 01:16:59;;;;;;;;;8.75;8.75;;;;;;;;5015606;28;8890;-91
2021/06/13 01:19:45;;;;;;;;;6.25;5.50;;;;;;;;5007764;28;8862;-91
2021/06/13 01:22:33;;;;;;;;;6.75;6.75;;;;;;;;5003479;28;8864;-92
2021/06/13 01:25:08;;;;;;;;;6.75;6.75;;;;;;;;5003579;28;8858;-85
2021/06/13 01:28:03;;;;;;;;;8.75;8.75;;;;;;;;5007342;28;8973;-90
2021/06/13 01:30:32;;;;;;;;;6.00;6.00;;;;;;;;4997943;28;8827;-87
2021/06/13 01:33:06;;;;;;;;;9.50;7.75;;;;;;;;5006775;28;8887;-89
2021/06/13 01:35:34;;;;;;;;;6.50;6.50;;;;;;;;5007720;28;8854;-90
2021/06/13 01:38:01;;;;;;;;;5.00;5.00;;;;;;;;5003189;28;8884;-91
2021/06/13 01:40:30;;;;;;;;;8.00;6.00;;;;;;;;5006372;28;8997;-89
2021/06/13 01:42:58;;;;;;;;;7.00;7.00;;;;;;;;5005762;28;8981;-93
2021/06/13 01:45:29;;;;;;;;;6.25;6.25;;;;;;;;5006571;28;8985;-85
2021/06/13 01:47:58;;;;;;;;;11.75;7.25;;;;;;;;5006715;28;9644;-92
2021/06/13 01:50:27;;;;;;;;;7.00;7.00;;;;;;;;5001170;28;9025;-88
2021/06/13 01:52:55;;;;;;;;;5.75;5.25;;;;;;;;5006018;28;9592;-91
2021/06/13 01:55:24;;;;;;;;;7.50;7.50;;;;;;;;4997837;28;8873;-87
2021/06/13 01:57:51;;;;;;;;;8.00;6.00;;;;;;;;5008495;28;8870;-88
2021/06/13 02:00:19;;;;;;;;;7.50;5.50;;;;;;;;5001592;28;9612;-90
2021/06/13 02:02:51;;;;;;;;;7.00;5.25;;;;;;;;5004058;28;8897;-91
2021/06/13 02:05:20;;;;;;;;;5.25;5.25;;;;;;;;5005239;28;8881;-89
2021/06/13 02:07:48;;;;;;;;;5.00;5.00;;;;;;;;5002931;28;8866;-91
2021/06/13 02:10:18;;;;;;;;;6.00;6.00;;;;;;;;5006623;28;8873;-91
2021/06/13 02:12:46;;;;;;;;;6.50;6.50;;;;;;;;5005460;28;8897;-93
2021/06/13 02:15:16;;;;;;;;;6.75;5.00;;;;;;;;5007860;28;9005;-84
2021/06/13 02:17:45;;;;;;;;;6.50;5.25;;;;;;;;5004042;28;8888;-93
2021/06/13 02:20:14;;;;;;;;;4.75;4.75;;;;;;;;5006395;28;9955;-91
2021/06/13 02:22:43;;;;;;;;;4.50;4.50;;;;;;;;5004185;28;8882;-91
2021/06/13 02:25:11;;;;;;;;;5.00;4.50;;;;;;;;5006801;28;8875;-90
2021/06/13 02:27:39;;;;;;;;;4.50;4.50;;;;;;;;5006019;28;8855;-87
2021/06/13 02:30:08;;;;;;;;;6.00;6.00;;;;;;;;5003695;28;8990;-90
2021/06/13 02:32:36;;;;;;;;;5.00;5.00;;;;;;;;5005394;28;8870;-87
2021/06/13 02:35:04;;;;;;;;;5.25;5.25;;;;;;;;5004772;28;8991;-91
2021/06/13 02:37:32;;;;;;;;;7.00;7.00;;;;;;;;5006475;28;8952;-90
2021/06/13 02:40:00;;;;;;;;;6.00;5.00;;;;;;;;5006462;28;8914;-90
2021/06/13 02:42:27;;;;;;;;;5.50;5.50;;;;;;;;5005070;28;8890;-88
2021/06/13 02:44:53;;;;;;;;;7.50;7.50;;;;;;;;5005041;28;10002;-92
2021/06/13 02:47:20;;;;;;;;;6.25;6.25;;;;;;;;5003608;28;8863;-89
2021/06/13 02:49:47;;;;;;;;;8.75;6.00;;;;;;;;5005543;28;8839;-87
2021/06/13 02:52:23;;;;;;;;;10.25;8.50;;;;;;;;5004046;28;8859;-89
2021/06/13 02:54:50;;;;;;;;;6.00;6.00;;;;;;;;5002310;28;8886;-89
2021/06/13 02:57:25;;;;;;;;;8.75;8.75;;;;;;;;5003063;28;8897;-93
2021/06/13 02:59:56;;;;;;;;;9.00;9.00;;;;;;;;5002446;28;8870;-92
2021/06/13 03:02:26;;;;;;;;;9.25;9.25;;;;;;;;5003355;28;8850;-91
2021/06/13 03:04:53;;;;;;;;;9.00;7.25;;;;;;;;5004856;28;11001;-87
2021/06/13 03:07:21;;;;;;;;;7.00;7.00;;;;;;;;5009064;28;8963;-90
2021/06/13 03:09:50;;;;;;;;;12.75;9.50;;;;;;;;5004243;28;8864;-89
2021/06/13 03:12:19;;;;;;;;;9.75;9.75;;;;;;;;5001824;28;8878;-89
2021/06/13 03:14:48;;;;;;;;;9.50;9.50;;;;;;;;5001444;28;9756;-89
2021/06/13 03:17:15;;;;;;;;;13.25;10.00;;;;;;;;5005703;28;8882;-87
2021/06/13 03:19:44;;;;;;;;;9.67;9.67;;;;;;;;5005845;28;8851;-89
2021/06/13 03:22:11;;;;;;;;;6.00;6.00;;;;;;;;5004442;28;9058;-89
2021/06/13 03:24:40;;;;;;;;;9.00;9.00;;;;;;;;5004681;28;9103;-90
2021/06/13 03:27:08;;;;;;;;;7.25;5.75;;;;;;;;5004385;28;9076;-89
2021/06/13 03:29:39;;;;;;;;;10.00;8.67;;;;;;;;5003457;28;8886;-87
2021/06/13 03:32:09;;;;;;;;;8.33;8.33;;;;;;;;4999736;28;9035;-89
2021/06/13 03:34:36;;;;;;;;;6.33;6.33;;;;;;;;5004676;28;8981;-88
2021/06/13 03:37:05;;;;;;;;;10.00;10.00;;;;;;;;5004676;28;8956;-93
2021/06/13 03:39:34;;;;;;;;;10.67;10.67;;;;;;;;5001881;28;8985;-92
2021/06/13 03:42:01;;;;;;;;;7.67;5.33;;;;;;;;5004707;28;9026;-88
2021/06/13 03:44:29;;;;;;;;;8.33;6.67;;;;;;;;5003825;28;9049;-91
2021/06/13 03:46:59;;;;;;;;;9.33;9.00;;;;;;;;5005224;28;9145;-91
2021/06/13 03:49:26;;;;;;;;;9.00;6.67;;;;;;;;5003934;28;9063;-92
2021/06/13 03:51:54;;;;;;;;;10.00;7.67;;;;;;;;5004494;28;9013;-85
2021/06/13 03:54:22;;;;;;;;;10.00;10.00;;;;;;;;5004811;28;9154;-93
2021/06/13 03:56:52;;;;;;;;;10.00;8.33;;;;;;;;4999592;28;9842;-91
2021/06/13 03:59:24;;;;;;;;;7.33;7.33;;;;;;;;5003730;28;9106;-93
2021/06/13 04:01:52;;;;;;;;;7.67;6.00;;;;;;;;4999224;28;9220;-89
2021/06/13 04:04:21;;;;;;;;;7.33;7.33;;;;;;;;5004691;28;9121;-93
2021/06/13 04:06:50;;;;;;;;;7.33;7.33;;;;;;;;5003731;28;9044;-94
2021/06/13 04:09:18;;;;;;;;;9.33;6.67;;;;;;;;5004559;28;9219;-92
2021/06/13 04:11:46;;;;;;;;;9.00;9.00;;;;;;;;5003224;28;9239;-90
2021/06/13 04:14:14;;;;;;;;;12.00;10.67;;;;;;;;5003063;28;9114;-91
2021/06/13 04:16:42;;;;;;;;;8.00;8.00;;;;;;;;5003250;28;9324;-87
2021/06/13 04:19:10;;;;;;;;;8.67;8.67;;;;;;;;5002692;28;9806;-89
2021/06/13 04:21:40;;;;;;;;;9.33;9.00;;;;;;;;5005146;28;9048;-86
2021/06/13 04:24:10;;;;;;;;;11.67;10.00;;;;;;;;5002893;28;9132;-89
2021/06/13 04:26:39;;;;;;;;;11.67;11.00;;;;;;;;5004591;28;9269;-86
2021/06/13 04:29:06;;;;;;;;;10.00;7.33;;;;;;;;5003123;28;9014;-88
2021/06/13 04:31:34;;;;;;;;;14.00;10.33;;;;;;;;5001952;28;8985;-87
2021/06/13 04:34:01;;;;;;;;;9.00;9.00;;;;;;;;5004257;28;9191;-92
2021/06/13 04:36:29;;;;;;;;;10.67;10.67;;;;;;;;5002652;28;9134;-84
2021/06/13 04:38:58;;;;;;;;;15.00;11.67;;;;;;;;5005014;28;9156;-91
2021/06/13 04:41:25;;;;;;;;;10.33;10.33;;;;;;;;4999991;28;9223;-90
2021/06/13 04:43:53;;;;;;;;;12.33;11.00;;;;;;;;5007988;28;9857;-89
2021/06/13 04:46:26;;;;;;;;;7.00;7.00;;;;;;;;5006808;28;9110;-91
2021/06/13 04:48:53;;;;;;;;;11.33;11.33;;;;;;;;5006657;28;9205;-86
2021/06/13 04:51:21;;;;;;;;;9.33;9.33;;;;;;;;5008333;28;9312;-90
2021/06/13 04:54:13;;;;;;;;;12.67;12.67;;;;;;;;5006297;28;8942;-89
2021/06/13 04:56:48;;;;;;;;;12.00;10.67;;;;;;;;5003965;28;9164;-89
2021/06/13 04:59:15;;;;;;;;;11.67;10.00;;;;;;;;5006532;28;9005;-88
2021/06/13 05:01:43;;;;;;;;;11.25;11.25;;;;;;;;5006568;28;8946;-89
2021/06/13 05:04:10;;;;;;;;;10.00;10.00;;;;;;;;5006716;28;8897;-91
2021/06/13 05:06:40;;;;;;;;;11.67;9.67;;;;;;;;5007443;28;8855;-92
2021/06/13 05:09:07;;;;;;;;;12.00;10.50;;;;;;;;5005914;28;9007;-89
2021/06/13 05:11:36;;;;;;;;;10.00;8.00;;;;;;;;5005578;28;8893;-90
2021/06/13 05:14:04;;;;;;;;;12.00;12.00;;;;;;;;5006549;28;8831;-90
2021/06/13 05:16:31;;;;;;;;;9.75;9.75;;;;;;;;5007200;28;8870;-92
2021/06/13 05:18:58;;;;;;;;;10.50;10.50;;;;;;;;5007154;28;8905;-91
2021/06/13 05:21:25;;;;;;;;;11.00;11.00;;;;;;;;5007848;28;9005;-88
2021/06/13 05:23:53;;;;;;;;;9.25;9.25;;;;;;;;5005944;28;8892;-92
2021/06/13 05:26:20;;;;;;;;;9.75;9.75;;;;;;;;5007548;28;8874;-90
2021/06/13 05:28:49;;;;;;;;;10.75;10.75;;;;;;;;5005438;28;8874;-91
2021/06/13 05:31:16;;;;;;;;;12.00;12.00;;;;;;;;5005309;28;8837;-87
2021/06/13 05:33:44;;;;;;;;;8.00;8.00;;;;;;;;5005010;28;8873;-90
2021/06/13 05:36:11;;;;;;;;;10.75;10.75;;;;;;;;5009374;28;8987;-86
2021/06/13 05:38:41;;;;;;;;;8.00;7.50;;;;;;;;5007352;28;8977;-90
2021/06/13 05:41:08;;;;;;;;;9.50;9.50;;;;;;;;5008077;28;8912;-93
2021/06/13 05:43:36;;;;;;;;;7.25;6.00;;;;;;;;5009420;28;8916;-87
2021/06/13 05:46:05;;;;;;;;;10.00;10.00;;;;;;;;5007745;28;9000;-89
2021/06/13 05:48:33;;;;;;;;;10.75;10.75;;;;;;;;5009184;28;8950;-89
2021/06/13 05:51:00;;;;;;;;;10.50;10.50;;;;;;;;5006648;28;8874;-92
2021/06/13 05:53:28;;;;;;;;;12.25;10.75;;;;;;;;5005840;28;8904;-86
2021/06/13 05:55:55;;;;;;;;;8.00;8.00;;;;;;;;5001415;28;10839;-92
2021/06/13 05:58:23;;;;;;;;;9.00;9.00;;;;;;;;5005182;28;8882;-91
2021/06/13 06:00:50;;;;;;;;;11.50;9.75;;;;;;;;5010479;28;8809;-88
2021/06/13 06:03:19;;;;;;;;;8.00;8.00;;;;;;;;5006114;28;8874;-89
2021/06/13 06:05:46;;;;;;;;;9.50;9.50;;;;;;;;5005058;28;9061;-89
2021/06/13 06:08:14;;;;;;;;;12.75;10.00;;;;;;;;5005087;28;8882;-89
2021/06/13 06:10:41;;;;;;;;;8.75;8.75;;;;;;;;5007989;28;8916;-87
2021/06/13 06:13:09;;;;;;;;;10.25;9.75;;;;;;;;5005612;28;8890;-91
2021/06/13 06:15:38;;;;;;;;;8.75;8.75;;;;;;;;5002593;28;8896;-88
2021/06/13 06:18:06;;;;;;;;;10.50;10.00;;;;;;;;5003860;28;8866;-86
2021/06/13 06:20:36;;;;;;;;;10.75;10.75;;;;;;;;5004645;28;8863;-90
2021/06/13 06:23:04;;;;;;;;;9.75;9.75;;;;;;;;5008160;28;8975;-92
2021/06/13 06:25:32;;;;;;;;;8.25;8.25;;;;;;;;5004213;28;8989;-83
2021/06/13 06:28:00;;;;;;;;;12.75;10.75;;;;;;;;5000750;28;8982;-80
2021/06/13 06:30:29;;;;;;;;;8.00;8.00;;;;;;;;5005120;28;8820;-83
2021/06/13 06:32:56;;;;;;;;;9.75;9.00;;;;;;;;5006742;28;8878;-81
2021/06/13 06:35:24;;;;;;;;;6.75;6.50;;;;;;;;5004207;28;8905;-78
2021/06/13 06:37:53;;;;;;;;;10.25;8.75;;;;;;;;5002875;28;8876;-80
2021/06/13 06:40:20;;;;;;;;;8.00;8.00;;;;;;;;5002739;28;8890;-79
2021/06/13 06:42:48;;;;;;;;;8.25;8.25;;;;;;;;5003842;28;8862;-80
2021/06/13 06:45:16;;;;;;;;;8.00;8.00;;;;;;;;5004238;28;8879;-79
2021/06/13 06:47:44;;;;;;;;;8.00;8.00;;;;;;;;5003899;28;8996;-78
2021/06/13 06:50:13;;;;;;;;;8.50;8.50;;;;;;;;5005411;28;8898;-82
2021/06/13 06:52:40;;;;;;;;;5.25;5.00;;;;;;;;5003802;28;8886;-80
2021/06/13 06:55:12;;;;;;;;;5.50;5.50;;;;;;;;5001065;28;9639;-77
2021/06/13 06:57:43;;;;;;;;;8.25;8.25;;;;;;;;5006702;28;8874;-79
2021/06/13 07:00:12;;;;;;;;;8.25;8.25;;;;;;;;5007918;28;8955;-81
2021/06/13 07:02:40;;;;;;;;;8.50;7.00;;;;;;;;5004907;28;8960;-80
2021/06/13 07:05:08;;;;;;;;;7.75;7.00;;;;;;;;5005763;28;9012;-82
2021/06/13 07:07:35;;;;;;;;;8.75;7.75;;;;;;;;5003763;28;9025;-81
2021/06/13 07:10:03;;;;;;;;;7.75;7.75;;;;;;;;5012269;28;8876;-79
2021/06/13 07:12:32;;;;;;;;;6.50;6.50;;;;;;;;5001899;28;8944;-78
2021/06/13 07:14:59;;;;;;;;;6.50;6.00;;;;;;;;5001249;28;8872;-80
2021/06/13 07:17:26;;;;;;;;;8.00;6.50;;;;;;;;5003119;28;8985;-78
2021/06/13 07:19:54;;;;;;;;;9.00;8.00;;;;;;;;5003689;28;8980;-79
2021/06/13 07:22:23;;;;;;;;;6.00;6.00;;;;;;;;5003774;28;8870;-78
2021/06/13 07:24:52;;;;;;;;;8.75;6.25;;;;;;;;5007424;28;8940;-82
2021/06/13 07:27:19;;;;;;;;;6.25;6.25;;;;;;;;5003790;28;8920;-78
2021/06/13 07:29:48;;;;;;;;;1.00;1.00;;;;;;;;5002614;28;8920;-76
2021/06/13 07:32:17;;;;;;;;;5.50;5.50;;;;;;;;4999635;28;8851;-77
2021/06/13 07:34:44;;;;;;;;;9.00;7.00;;;;;;;;5000699;28;8878;-75
2021/06/13 07:37:12;;;;;;;;;7.50;7.50;;;;;;;;5002710;28;8868;-75
2021/06/13 07:39:40;;;;;;;;;7.00;7.00;;;;;;;;5002308;28;8870;-76
2021/06/13 07:42:08;;;;;;;;;6.00;6.00;;;;;;;;5004140;28;9629;-75
2021/06/13 07:44:36;;;;;;;;;9.00;7.50;;;;;;;;5003085;28;8863;-75
2021/06/13 07:47:05;;;;;;;;;6.50;6.00;;;;;;;;5002931;28;8889;-75
2021/06/13 07:49:32;;;;;;;;;5.50;5.50;;;;;;;;5003799;28;9702;-75
2021/06/13 07:52:00;;;;;;;;;7.50;6.50;;;;;;;;5003077;28;8876;-77
2021/06/13 07:54:29;;;;;;;;;5.20;5.20;;;;;;;;5001969;28;9636;-74
2021/06/13 07:56:56;;;;;;;;;6.20;5.00;;;;;;;;5001808;28;8877;-76
2021/06/13 07:59:23;;;;;;;;;5.80;5.80;;;;;;;;5003206;28;10777;-75
2021/06/13 08:01:51;;;;;;;;;3.20;3.20;;;;;;;;5002464;28;8946;-76
2021/06/13 08:04:20;;;;;;;;;3.20;3.20;;;;;;;;5001730;28;8882;-73
2021/06/13 08:06:48;;;;;;;;;5.40;5.40;;;;;;;;5003808;28;9017;-76
2021/06/13 08:09:17;;;;;;;;;4.40;4.40;;;;;;;;5001258;28;8876;-73
2021/06/13 08:11:44;;;;;;;;;5.20;5.20;;;;;;;;4998497;28;8867;-76
2021/06/13 08:14:11;;;;;;;;;6.20;5.00;;;;;;;;5002171;28;9612;-78
2021/06/13 08:16:39;;;;;;;;;5.20;5.20;;;;;;;;5001748;28;8894;-76
2021/06/13 08:19:06;;;;;;;;;5.60;4.40;;;;;;;;5004050;28;8860;-76
2021/06/13 08:21:36;;;;;;;;;5.00;4.80;;;;;;;;5005883;28;8993;-76
2021/06/13 08:24:03;;;;;;;;;5.00;5.00;;;;;;;;5006980;28;8938;-76
2021/06/13 08:26:31;;;;;;;;;5.20;5.20;;;;;;;;5007261;28;8884;-78
2021/06/13 08:29:01;;;;;;;;;7.60;6.00;;;;;;;;5006057;28;9557;-74
2021/06/13 08:31:29;;;;;;;;;5.00;5.00;;;;;;;;5005483;28;8839;-78
2021/06/13 08:33:57;;;;;;;;;6.80;5.20;;;;;;;;5006771;28;8949;-76
2021/06/13 08:36:25;;;;;;;;;3.40;3.40;;;;;;;;5006328;28;9825;-76
2021/06/13 08:38:55;;;;;;;;;5.20;4.60;;;;;;;;5006619;28;8875;-76
2021/06/13 08:41:23;;;;;;;;;4.40;3.00;;;;;;;;5002883;28;8882;-76
2021/06/13 08:43:51;;;;;;;;;4.20;3.80;;;;;;;;5006596;28;8936;-73
2021/06/13 08:46:19;;;;;;;;;4.00;4.00;;;;;;;;5006875;28;8858;-73
2021/06/13 08:48:48;;;;;;;;;5.60;4.60;;;;;;;;5006366;28;8891;-75
2021/06/13 08:51:16;;;;;;;;;5.00;5.00;;;;;;;;5006808;28;9678;-72
2021/06/13 08:53:45;;;;;;;;;3.80;3.80;;;;;;;;4998777;28;8874;-78
2021/06/13 08:56:14;;;;;;;;;6.00;3.60;;;;;;;;5005619;28;8925;-75
2021/06/13 08:58:42;;;;;;;;;3.20;3.20;;;;;;;;5007253;28;8846;-75
2021/06/13 09:01:10;;;;;;;;;6.00;5.20;;;;;;;;5004386;28;8926;-75
2021/06/13 09:03:38;;;;;;;;;3.00;3.00;;;;;;;;5007240;28;8878;-71
2021/06/13 09:06:05;;;;;;;;;4.80;3.40;;;;;;;;5006102;28;8884;-72
2021/06/13 09:08:37;;;;;;;;;4.00;2.00;;;;;;;;5011436;28;9637;-76
2021/06/13 09:11:05;;;;;;;;;2.60;2.60;;;;;;;;5005889;28;8850;-74
2021/06/13 09:13:37;;;;;;;;;2.80;2.80;;;;;;;;5006550;28;8874;-76
2021/06/13 09:16:06;;;;;;;;;3.60;3.60;;;;;;;;4994981;28;8870;-76
2021/06/13 09:18:39;;;;;;;;;3.40;3.40;;;;;;;;5006462;28;8924;-77
2021/06/13 09:21:08;;;;;;;;;4.60;3.60;;;;;;;;5002589;28;8862;-78
2021/06/13 09:23:38;;;;;;;;;2.60;2.60;;;;;;;;5005450;28;8882;-76
2021/06/13 09:26:06;;;;;;;;;4.20;4.20;;;;;;;;4996162;28;8965;-76
2021/06/13 09:28:37;;;;;;;;;3.60;3.60;;;;;;;;5005209;28;8875;-77
2021/06/13 09:31:05;;;;;;;;;4.80;3.20;;;;;;;;5004342;28;8827;-76
2021/06/13 09:33:34;;;;;;;;;2.80;2.80;;;;;;;;5003102;28;8890;-76
2021/06/13 09:36:03;;;;;;;;;3.80;3.80;;;;;;;;4999494;28;8882;-76
2021/06/13 09:38:31;;;;;;;;;3.00;3.00;;;;;;;;5003421;28;8866;-75
2021/06/13 09:41:00;;;;;;;;;2.80;2.80;;;;;;;;5001321;28;9679;-75
2021/06/13 09:43:30;;;;;;;;;5.00;3.80;;;;;;;;4996223;28;8870;-75
2021/06/13 09:46:02;;;;;;;;;2.80;2.80;;;;;;;;5003212;28;8878;-74
2021/06/13 09:48:30;;;;;;;;;3.80;3.80;;;;;;;;5002695;28;8991;-75
2021/06/13 09:50:59;;;;;;;;;2.80;2.80;;;;;;;;5002419;28;8862;-74
2021/06/13 09:53:29;;;;;;;;;2.00;2.00;;;;;;;;5002729;28;8910;-75
2021/06/13 09:56:19;;;;;;;;;2.40;2.40;;;;;;;;5002228;28;8884;-75
2021/06/13 09:58:51;;;;;;;;;4.80;3.20;;;;;;;;5002739;28;9008;-77
2021/06/13 10:01:22;;;;;;;;;3.80;3.80;;;;;;;;5002615;28;8818;-77
2021/06/13 10:03:49;;;;;;;;;4.80;3.00;;;;;;;;5003863;28;8877;-75
2021/06/13 10:06:19;;;;;;;;;3.40;3.20;;;;;;;;5003762;28;9005;-76
2021/06/13 10:08:49;;;;;;;;;4.40;2.60;;;;;;;;5006215;28;8894;-77
2021/06/13 10:11:18;;;;;;;;;2.60;2.60;;;;;;;;5003223;28;8875;-77
2021/06/13 10:13:51;;;;;;;;;2.40;2.00;;;;;;;;5004736;28;8878;-76
2021/06/13 10:16:41;;;;;;;;;2.80;2.80;;;;;;;;5005384;28;9660;-77
2021/06/13 10:19:10;;;;;;;;;4.80;4.40;;;;;;;;5003372;28;8890;-76
2021/06/13 10:21:40;;;;;;;;;1.80;1.80;;;;;;;;5005269;28;8851;-74
2021/06/13 10:24:11;;;;;;;;;2.40;2.40;;;;;;;;5004344;28;8870;-75
2021/06/13 10:26:39;;;;;;;;;2.80;2.80;;;;;;;;5002420;28;9651;-75
2021/06/13 10:29:09;;;;;;;;;4.20;3.40;;;;;;;;4995558;28;8882;-78
2021/06/13 10:31:38;;;;;;;;;18.80;18.80;;;;;;;;5002885;28;8839;-76
2021/06/13 10:34:05;;;;;;;;;2.40;2.40;;;;;;;;5006453;28;8886;-77
2021/06/13 10:36:34;;;;;;;;;5.00;5.00;;;;;;;;5005086;28;8981;-75
2021/06/13 10:39:02;;;;;;;;;1.00;1.00;;;;;;;;5005054;28;8875;-77
2021/06/13 10:41:29;;;;;;;;;2.40;2.40;;;;;;;;5000284;28;8876;-76
2021/06/13 10:44:01;;;;;;;;;2.60;2.60;;;;;;;;5002617;28;8851;-79
2021/06/13 10:46:30;;;;;;;;;2.00;2.00;;;;;;;;5015036;28;8870;-76
2021/06/13 10:49:01;;;;;;;;;2.80;2.40;;;;;;;;5009017;28;8986;-79
2021/06/13 10:51:38;;;;;;;;;2.20;2.20;;;;;;;;5004066;28;8921;-76
2021/06/13 10:54:25;;;;;;;;;7.80;7.80;;;;;;;;5003538;28;8987;-81
2021/06/13 10:56:53;;;;;;;;;2.00;2.00;;;;;;;;5001774;28;8856;-77
2021/06/13 10:59:21;;;;;;;;;2.60;2.60;;;;;;;;5003442;28;8897;-76
2021/06/13 11:02:08;;;;;;;;;10.80;7.40;;;;;;;;5003071;28;8819;-76
2021/06/13 11:04:44;;;;;;;;;7.00;5.40;;;;;;;;5000100;28;8995;-77
2021/06/13 11:07:11;;;;;;;;;8.40;8.20;;;;;;;;5002984;28;8882;-77
2021/06/13 11:10:13;;;;;;;;;3.00;3.00;;;;;;;;5004813;28;9016;-74
2021/06/13 11:12:42;;;;;;;;;2.00;2.00;;;;;;;;4960352;28;9668;-73
2021/06/13 11:15:10;;;;;;;;;3.20;3.20;;;;;;;;4986136;28;8882;-75
2021/06/13 11:17:54;;;;;;;;;2.00;2.00;;;;;;;;5003958;28;8870;-78
2021/06/13 11:20:46;;;;;;;;;8.20;7.60;;;;;;;;5002611;28;8870;-74
2021/06/13 11:23:42;;;;;;;;;3.20;2.80;;;;;;;;5005019;28;9652;-76
2021/06/13 11:26:34;;;;;;;;;4.60;2.60;;;;;;;;5001217;28;8874;-78
2021/06/13 11:29:02;;;;;;;;;5.80;5.80;;;;;;;;5003136;28;9035;-77
2021/06/13 11:31:29;;;;;;;;;2.00;2.00;;;;;;;;5002662;28;8846;-77
2021/06/13 11:34:09;;;;;;;;;3.40;3.40;;;;;;;;5002195;28;9655;-74
2021/06/13 11:36:40;;;;;;;;;3.00;3.00;;;;;;;;5003783;28;8890;-79
2021/06/13 11:39:25;;;;;;;;;1.60;1.60;;;;;;;;4995491;28;9008;-78
2021/06/13 11:42:08;;;;;;;;;5.40;3.80;;;;;;;;5012367;28;8898;-78
2021/06/13 11:44:40;;;;;;;;;3.20;3.00;;;;;;;;5004429;28;9699;-77
2021/06/13 11:47:36;;;;;;;;;4.20;4.20;;;;;;;;5002707;28;8878;-81
2021/06/13 11:50:10;;;;;;;;;3.20;3.00;;;;;;;;4996501;28;8910;-75
2021/06/13 11:53:03;;;;;;;;;1.20;1.20;;;;;;;;5000630;28;8954;-81
2021/06/13 11:55:52;;;;;;;;;5.60;4.80;;;;;;;;5000527;28;8977;-79
2021/06/13 11:58:20;;;;;;;;;22.00;22.00;;;;;;;;5001407;28;8919;-79
2021/06/13 12:00:47;;;;;;;;;3.40;2.60;;;;;;;;5001177;28;8925;-78
2021/06/13 12:03:15;;;;;;;;;6.60;5.20;;;;;;;;5003332;28;8907;-79
2021/06/13 12:05:43;;;;;;;;;2.80;2.80;;;;;;;;5002746;28;8890;-79
2021/06/13 12:08:12;;;;;;;;;4.40;4.40;;;;;;;;4994554;28;8915;-78
2021/06/13 12:10:46;;;;;;;;;6.80;6.80;;;;;;;;5000975;28;8887;-78
2021/06/13 12:13:14;;;;;;;;;1.00;1.00;;;;;;;;5005157;28;8874;-79
2021/06/13 12:15:42;;;;;;;;;1.00;1.00;;;;;;;;5004749;28;8906;-80
2021/06/13 12:18:16;;;;;;;;;4.20;2.00;;;;;;;;5003886;28;8993;-80
2021/06/13 12:20:44;;;;;;;;;0.20;0.20;;;;;;;;5002403;28;9082;-80
2021/06/13 12:23:17;;;;;;;;;1.60;1.60;;;;;;;;5003221;28;9025;-78
2021/06/13 12:28:30;;;;;;;;;4.60;2.60;;;;;;;;5004735;28;8886;-80
2021/06/13 12:30:57;;;;;;;;;2.00;2.00;;;;;;;;5001176;28;8877;-80
2021/06/13 12:33:26;;;;;;;;;0.80;0.80;;;;;;;;4993983;28;8899;-81
2021/06/13 12:35:54;;;;;;;;;0.40;0.40;;;;;;;;5001550;28;8863;-79
2021/06/13 12:38:25;;;;;;;;;0.60;0.60;;;;;;;;5007469;28;8886;-80
2021/06/13 12:40:54;;;;;;;;;1.00;1.00;;;;;;;;5002897;28;8882;-79
2021/06/13 12:43:36;;;;;;;;;3.80;2.20;;;;;;;;5002223;28;8886;-79
2021/06/13 12:46:03;;;;;;;;;2.00;2.00;;;;;;;;5002646;28;8870;-78
2021/06/13 12:48:31;;;;;;;;;1.40;1.00;;;;;;;;5002701;28;8867;-80
2021/06/13 12:50:58;;;;;;;;;0.60;0.60;;;;;;;;5002654;28;8912;-80
2021/06/13 12:53:34;;;;;;;;;2.00;2.00;;;;;;;;5004079;28;8859;-78
2021/06/13 12:56:01;;;;;;;;;1.20;1.20;;;;;;;;5001248;28;8862;-79
2021/06/13 12:58:31;;;;;;;;;1.20;1.20;;;;;;;;5003521;28;8890;-78
2021/06/13 13:00:59;;;;;;;;;1.20;1.20;;;;;;;;5000152;28;8839;-78
2021/06/13 13:03:27;;;;;;;;;3.00;1.00;;;;;;;;5004300;28;8902;-76
2021/06/13 13:06:05;;;;;;;;;2.40;1.20;;;;;;;;5005282;28;8937;-80
2021/06/13 13:08:41;;;;;;;;;1.00;1.00;;;;;;;;5005518;28;8875;-76
2021/06/13 13:11:09;;;;;;;;;1.60;1.60;;;;;;;;5001848;28;8942;-80
2021/06/13 13:13:40;;;;;;;;;1.00;1.00;;;;;;;;5005707;28;8877;-77
2021/06/13 13:16:21;;;;;;;;;0.00;0.00;;;;;;;;5005131;28;8886;-81
2021/06/13 13:18:48;;;;;;;;;1.00;1.00;;;;;;;;5006104;28;8879;-83
2021/06/13 13:21:28;;;;;;;;;1.20;1.20;;;;;;;;5005913;28;8969;-82
2021/06/13 13:23:58;;;;;;;;;1.40;1.40;;;;;;;;5005664;28;8873;-80
2021/06/13 13:26:25;;;;;;;;;1.60;1.60;;;;;;;;5004468;28;8874;-89
2021/06/13 13:28:53;;;;;;;;;4.20;4.20;;;;;;;;5007474;28;8870;-80
2021/06/13 13:31:22;;;;;;;;;2.00;2.00;;;;;;;;5005879;28;8937;-85
2021/06/13 13:33:58;;;;;;;;;2.60;2.60;;;;;;;;5006937;28;8892;-85
2021/06/13 13:36:32;;;;;;;;;0.60;0.60;;;;;;;;5006274;28;8978;-82
2021/06/13 13:39:01;;;;;;;;;2.00;2.00;;;;;;;;5006299;28;8878;-82
2021/06/13 13:41:39;;;;;;;;;1.40;1.40;;;;;;;;5005917;28;8883;-83
2021/06/13 13:44:08;;;;;;;;;0.20;0.20;;;;;;;;5005034;28;9686;-80
2021/06/13 13:46:38;;;;;;;;;1.40;1.40;;;;;;;;5006545;28;9020;-80
2021/06/13 13:49:07;;;;;;;;;1.40;0.80;;;;;;;;5005638;28;9019;-83
2021/06/13 13:51:43;;;;;;;;;1.00;1.00;;;;;;;;4993487;28;8922;-83
2021/06/13 13:54:23;;;;;;;;;2.40;2.00;;;;;;;;5006332;28;9647;-84
2021/06/13 13:56:52;;;;;;;;;1.00;1.00;;;;;;;;5005767;28;9642;-83
2021/06/13 13:59:19;;;;;;;;;2.00;2.00;;;;;;;;5006880;28;9648;-84
2021/06/13 14:01:46;;;;;;;;;2.00;2.00;;;;;;;;5005049;28;9707;-84
2021/06/13 14:04:13;;;;;;;;;1.00;1.00;;;;;;;;5005671;28;9610;-82
2021/06/13 14:06:41;;;;;;;;;1.00;1.00;;;;;;;;5005199;28;8928;-84
2021/06/13 14:09:08;;;;;;;;;1.00;1.00;;;;;;;;5000765;28;8889;-82
2021/06/13 14:11:37;;;;;;;;;0.60;0.60;;;;;;;;5005499;28;8912;-82
2021/06/13 14:14:05;;;;;;;;;0.60;0.60;;;;;;;;5002293;28;8858;-82
2021/06/13 14:16:32;;;;;;;;;0.40;0.40;;;;;;;;5005697;28;8977;-84
2021/06/13 14:19:00;;;;;;;;;1.00;1.00;;;;;;;;5003979;28;8917;-85
2021/06/13 14:21:27;;;;;;;;;1.60;1.60;;;;;;;;5006758;28;8864;-83
2021/06/13 14:23:55;;;;;;;;;0.00;0.00;;;;;;;;5005181;28;8991;-83
2021/06/13 14:26:23;;;;;;;;;1.00;1.00;;;;;;;;5006109;28;9020;-83
2021/06/13 14:28:52;;;;;;;;;0.00;0.00;;;;;;;;5002846;28;8869;-84
2021/06/13 14:31:21;;;;;;;;;0.80;0.80;;;;;;;;5004332;28;8831;-84
2021/06/13 14:33:48;;;;;;;;;0.00;0.00;;;;;;;;5005941;28;8898;-84
2021/06/13 14:36:16;;;;;;;;;1.40;1.40;;;;;;;;5001660;28;8981;-84
2021/06/13 14:38:43;;;;;;;;;1.80;1.80;;;;;;;;5006254;28;8893;-85
2021/06/13 14:41:10;;;;;;;;;1.00;1.00;;;;;;;;5000149;28;8882;-85
2021/06/13 14:43:38;;;;;;;;;0.80;0.80;;;;;;;;5005306;28;9021;-83
2021/06/13 14:46:06;;;;;;;;;0.60;0.60;;;;;;;;5002135;28;9603;-85
2021/06/13 14:48:34;;;;;;;;;0.20;0.20;;;;;;;;5002695;28;8862;-83
2021/06/13 14:51:02;;;;;;;;;1.80;1.80;;;;;;;;4989008;28;9718;-82
2021/06/13 14:53:29;;;;;;;;;2.20;1.20;;;;;;;;5004364;28;9014;-83
2021/06/13 14:55:56;;;;;;;;;1.80;1.20;;;;;;;;5004658;28;8957;-84
2021/06/13 14:58:24;;;;;;;;;1.80;1.80;;;;;;;;5005099;28;8886;-84
2021/06/13 15:00:51;;;;;;;;;2.00;2.00;;;;;;;;5003264;28;8823;-83
2021/06/13 15:03:21;;;;;;;;;1.60;1.00;;;;;;;;5005867;28;8874;-83
2021/06/13 15:05:48;;;;;;;;;0.00;0.00;;;;;;;;5004599;28;8903;-84
2021/06/13 15:08:15;;;;;;;;;1.20;1.20;;;;;;;;5004441;28;8844;-81
2021/06/13 15:10:43;;;;;;;;;0.40;0.40;;;;;;;;5003595;28;8874;-83